Lenore, ID (83541)

1:43 AM PST on February 14, 2016 (GMT -0800)
Linden-Cedar Ridge | | Change Station
CLOSE
Current Station
Personal Weather Station
Location: Kendrick, ID
Elevation: 2707 ft
Nearby Weather Stations

Elev 2707 ft 46.69 °N, 116.50 °W | Updated 11 seconds ago

Overcast
Overcast
37.0 °F
Feels Like 37 °F
N
2.9
Wind Variable Wind from NE
Gusts 4.0 mph

Today
High -- | Low -- °F
--% Chance of Precip.
Yesterday
High -- | Low -- °F
Precip. -- in
Pressure 30.12 in
Visibility 10.0 miles
Clouds Scattered Clouds 100 ft
Mostly Cloudy 4400 ft
Overcast 6500 ft
Windchill 37 °F
Dew Point 35 °F
Humidity 94%
Rainfall 0.03 in
Snow Depth Not available.
6:51 AM 5:08 PM
Waxing Crescent, 40% visible
SPECI KLWS 140910Z 00000KT 10SM SCT001 BKN044 OVC065 05/04 A3012 RMK AO2 T00500044
Pressure 30.12 in
Visibility 10.0 miles
Clouds Scattered Clouds 100 ft
Mostly Cloudy 4400 ft
Overcast 6500 ft
Windchill 37 °F
Dew Point 35 °F
Humidity 94%
Rainfall 0.03 in
Snow Depth Not available.
6:51 AM 5:08 PM
Waxing Crescent, 40% visible
SPECI KLWS 140910Z 00000KT 10SM SCT001 BKN044 OVC065 05/04 A3012 RMK AO2 T00500044

10-Day Weather Forecast

Almanac

Astronomy

Feb. 14, 2016 Rise Set
Actual Time
Civil Twilight
Nautical Twilight
Astronomical Twilight
Moon
Length of Visible Light
Length of Day
Tomorrow will be .
, % of the Moon is Illuminated

Today's Extremes

State Highs State Lows

Community

WunderPhotos

Upload Photos

1,892,761 photos uploaded!

WunderBlog® & News

Nearby

Air Quality

  Air Quality AQ Index Pollutant
Not available.

Snow Depth

Station Depth Elevation

Earthquake Activity

City Distance Mag. Time & Date
Minimum magnitude displayed is 2.5.

Coastal Water Temperatures

Place Temperature

Stations

Nearby Weather Stations

Station Location Temp. Windchill Dew Point Humidity Wind Precip. Elev Updated Type
                   

Watches & Warnings

There are currently no watches in effect.